createdAt,value
2022-12-31T00:01:58.395Z,99458.52
2022-12-31T00:04:31.008Z,99450.73
2022-12-31T00:07:03.529Z,99453.41
2022-12-31T00:09:38.900Z,99452.23
2022-12-31T00:12:11.618Z,99448.75
2022-12-31T00:14:44.101Z,99439.17
2022-12-31T00:17:16.556Z,99439.69
2022-12-31T00:19:49.582Z,99442.25
2022-12-31T00:22:22.829Z,99442.39
2022-12-31T00:24:55.312Z,99443.56
2022-12-31T00:27:27.861Z,99445.60
2022-12-31T00:30:04.665Z,99442.02
2022-12-31T00:32:37.580Z,99441.09
2022-12-31T00:35:14.174Z,99440.85
2022-12-31T00:37:46.757Z,99443.39
2022-12-31T00:40:19.399Z,99446.64
2022-12-31T00:42:51.933Z,99451.65
2022-12-31T00:45:25.439Z,99450.73
2022-12-31T00:47:57.976Z,99460.75
2022-12-31T00:50:30.604Z,99468.36
2022-12-31T00:53:03.068Z,99464.02
2022-12-31T00:55:35.623Z,99465.23
2022-12-31T00:58:09.280Z,99467.14
2022-12-31T01:00:43.097Z,99466.52
2022-12-31T01:03:15.792Z,99470.88
2022-12-31T01:05:48.376Z,99467.61
2022-12-31T01:08:21.272Z,99465.73
2022-12-31T01:11:11.174Z,99457.38
2022-12-31T01:13:43.669Z,99468.52
2022-12-31T01:16:18.139Z,99470.09
2022-12-31T01:18:51.797Z,99476.86
2022-12-31T01:21:25.927Z,99478.43
2022-12-31T01:23:58.951Z,99477.20
2022-12-31T01:26:32.059Z,99476.12
2022-12-31T01:29:05.038Z,99475.91
2022-12-31T01:31:39.037Z,99474.45
2022-12-31T01:34:12.965Z,99470.77
2022-12-31T01:36:45.485Z,99467.83
2022-12-31T01:39:18.004Z,99468.36
2022-12-31T01:41:50.999Z,99471.58
2022-12-31T01:45:00.194Z,99473.05
2022-12-31T01:47:40.628Z,99479.60
2022-12-31T01:50:19.652Z,99489.05
2022-12-31T01:52:56.076Z,99496.59
2022-12-31T01:55:34.575Z,99500.86
2022-12-31T01:58:11.564Z,99497.46
2022-12-31T02:00:46.798Z,99496.24
2022-12-31T02:03:19.962Z,99485.41
2022-12-31T02:05:59.147Z,99483.27
2022-12-31T02:08:34.609Z,99474.15
2022-12-31T02:11:29.230Z,99463.82
2022-12-31T02:14:05.395Z,99459.23
2022-12-31T02:16:47.979Z,99448.91
2022-12-31T02:19:57.580Z,99439.02
2022-12-31T02:22:49.335Z,99421.44
2022-12-31T02:25:48.238Z,99413.65
2022-12-31T02:28:37.059Z,99421.34
2022-12-31T02:31:16.730Z,99436.11
2022-12-31T02:33:56.201Z,99435.23
2022-12-31T02:36:33.655Z,99426.05
2022-12-31T02:39:08.835Z,99431.13
2022-12-31T02:41:53.992Z,99430.98
2022-12-31T02:44:28.750Z,99425.80
2022-12-31T02:47:32.136Z,99428.27
2022-12-31T02:50:21.527Z,99425.20
2022-12-31T02:53:05.389Z,99430.80
2022-12-31T02:55:47.184Z,99429.79
2022-12-31T02:58:44.277Z,99432.77
2022-12-31T03:01:39.116Z,99435.41
2022-12-31T03:04:27.249Z,99431.07
2022-12-31T03:07:01.334Z,99433.52
2022-12-31T03:09:34.352Z,99433.36
2022-12-31T03:12:26.898Z,99432.35
2022-12-31T03:15:00.304Z,99429.61
2022-12-31T03:17:32.823Z,99424.77
2022-12-31T03:20:23.100Z,99422.20
2022-12-31T03:22:55.593Z,99422.90
2022-12-31T03:25:38.157Z,99427.97
2022-12-31T03:28:14.102Z,99424.01
2022-12-31T03:30:49.258Z,99415.01
2022-12-31T03:33:22.181Z,99411.91
2022-12-31T03:35:55.509Z,99417.16
2022-12-31T03:38:28.092Z,99413.89
2022-12-31T03:41:00.607Z,99409.08
2022-12-31T03:43:33.172Z,99406.67
2022-12-31T03:46:05.796Z,99404.27
2022-12-31T03:48:40.066Z,99405.38
2022-12-31T03:51:12.672Z,99406.09
2022-12-31T03:53:45.169Z,99408.25
2022-12-31T03:56:17.653Z,99413.00
2022-12-31T03:58:50.166Z,99408.32
2022-12-31T04:01:25.559Z,99410.09
2022-12-31T04:03:58.155Z,99407.83
2022-12-31T04:06:30.766Z,99402.98
2022-12-31T04:09:03.257Z,99403.54
2022-12-31T04:11:35.724Z,99393.64
2022-12-31T04:14:08.819Z,99389.99
2022-12-31T04:16:41.497Z,99392.80
2022-12-31T04:19:14.368Z,99400.64
2022-12-31T04:21:46.912Z,99392.11
2022-12-31T04:24:19.470Z,99390.36
2022-12-31T04:26:52.929Z,99398.02
2022-12-31T04:29:25.719Z,99398.55
2022-12-31T04:31:58.351Z,99387.95
2022-12-31T04:34:30.910Z,99381.34
2022-12-31T04:37:03.806Z,99378.39
2022-12-31T04:39:37.522Z,99379.44
2022-12-31T04:42:10.177Z,99376.48
2022-12-31T04:44:42.647Z,99374.27
2022-12-31T04:47:21.745Z,99366.64
2022-12-31T04:49:56.085Z,99362.31
2022-12-31T04:52:28.931Z,99361.48
2022-12-31T04:55:01.508Z,99363.97
2022-12-31T04:57:33.995Z,99359.13
2022-12-31T05:00:08.087Z,99360.20
2022-12-31T05:02:41.969Z,99363.71
2022-12-31T05:05:15.784Z,99365.31
2022-12-31T05:07:48.352Z,99368.33
2022-12-31T05:10:20.955Z,99373.23
2022-12-31T05:12:53.513Z,99382.67
2022-12-31T05:15:26.087Z,99389.48
2022-12-31T05:17:58.941Z,99396.67
2022-12-31T05:20:32.120Z,99397.59
2022-12-31T05:23:04.735Z,99401.27
2022-12-31T05:25:38.588Z,99405.16
2022-12-31T05:28:11.343Z,99405.39
2022-12-31T05:30:44.227Z,99396.00
2022-12-31T05:33:16.716Z,99388.02
2022-12-31T05:35:49.279Z,99380.75
2022-12-31T05:38:21.771Z,99383.06
2022-12-31T05:41:02.431Z,99390.09
2022-12-31T05:43:35.359Z,99393.45
2022-12-31T05:46:08.266Z,99394.52
2022-12-31T05:48:41.002Z,99403.44
2022-12-31T05:51:13.844Z,99409.06
2022-12-31T05:53:46.375Z,99409.96
2022-12-31T05:56:20.648Z,99422.56
2022-12-31T05:58:53.276Z,99415.27
2022-12-31T06:01:25.911Z,99408.51
2022-12-31T06:03:59.826Z,99407.66
2022-12-31T06:06:32.639Z,99403.52
2022-12-31T06:09:05.493Z,99407.73
2022-12-31T06:11:37.968Z,99410.73
2022-12-31T06:14:10.937Z,99403.92
2022-12-31T06:16:45.026Z,99400.31
2022-12-31T06:19:17.850Z,99404.17
2022-12-31T06:21:50.344Z,99407.85
2022-12-31T06:24:23.081Z,99405.06
2022-12-31T06:26:55.663Z,99405.96
2022-12-31T06:29:28.377Z,99403.89
2022-12-31T06:32:03.247Z,99407.23
2022-12-31T06:34:35.766Z,99408.79
2022-12-31T06:37:08.561Z,99408.23
2022-12-31T06:39:41.182Z,99412.76
2022-12-31T06:42:14.355Z,99424.27
2022-12-31T06:44:48.175Z,99435.80
2022-12-31T06:47:20.986Z,99434.57
2022-12-31T06:49:53.465Z,99440.33
2022-12-31T06:52:26.074Z,99443.80
2022-12-31T06:54:59.418Z,99445.20
2022-12-31T06:57:32.870Z,99448.15
2022-12-31T07:00:07.026Z,99446.91
2022-12-31T07:03:11.143Z,99453.71
2022-12-31T07:05:51.575Z,99456.68
2022-12-31T07:08:51.197Z,99460.17
2022-12-31T07:11:27.589Z,99464.20
2022-12-31T07:14:09.921Z,99466.83
2022-12-31T07:17:04.962Z,99464.21
2022-12-31T07:19:57.172Z,99465.98
2022-12-31T07:22:33.615Z,99473.69
2022-12-31T07:25:08.359Z,99480.00
2022-12-31T07:27:56.745Z,99482.65
2022-12-31T07:30:37.408Z,99487.55
2022-12-31T07:33:32.763Z,99490.35
2022-12-31T07:36:19.081Z,99491.77
2022-12-31T07:38:59.932Z,99494.60
2022-12-31T07:41:44.376Z,99497.77
2022-12-31T07:44:32.632Z,99493.60
2022-12-31T07:47:17.204Z,99493.09
2022-12-31T07:49:50.611Z,99501.30
2022-12-31T07:52:24.892Z,99498.85
2022-12-31T07:54:57.589Z,99502.02
2022-12-31T07:57:42.331Z,99505.71
2022-12-31T08:00:18.127Z,99508.55
2022-12-31T08:03:13.039Z,99506.34
2022-12-31T08:05:57.299Z,99511.45
2022-12-31T08:08:43.181Z,99512.71
2022-12-31T08:11:25.083Z,99515.04
2022-12-31T08:14:02.073Z,99513.39
2022-12-31T08:16:35.765Z,99520.13
2022-12-31T08:19:16.907Z,99518.81
2022-12-31T08:21:58.333Z,99518.88
2022-12-31T08:24:41.698Z,99521.71
2022-12-31T08:27:24.143Z,99522.08
2022-12-31T08:30:03.960Z,99521.55
2022-12-31T08:32:43.520Z,99519.27
2022-12-31T08:35:26.272Z,99523.13
2022-12-31T08:38:08.632Z,99520.67
2022-12-31T08:41:02.149Z,99523.68
2022-12-31T08:43:49.646Z,99523.20
2022-12-31T08:46:27.937Z,99520.79
2022-12-31T08:49:03.014Z,99507.34
2022-12-31T08:51:36.518Z,99508.23
2022-12-31T08:54:11.609Z,99514.36
2022-12-31T08:56:51.453Z,99520.67
2022-12-31T08:59:34.804Z,99517.69
2022-12-31T09:02:24.969Z,99521.20
2022-12-31T09:05:07.130Z,99517.34
2022-12-31T09:07:42.706Z,99508.77
2022-12-31T09:10:23.909Z,99509.64
2022-12-31T09:13:04.358Z,99514.73
2022-12-31T09:15:42.733Z,99517.17
2022-12-31T09:18:14.679Z,99517.17
2022-12-31T09:20:47.939Z,99516.83
2022-12-31T09:23:22.751Z,99518.76
2022-12-31T09:26:02.228Z,99521.22
2022-12-31T09:28:44.209Z,99517.36
2022-12-31T09:31:23.310Z,99522.08
2022-12-31T09:34:03.969Z,99525.06
2022-12-31T09:36:42.580Z,99515.42
2022-12-31T09:39:24.278Z,99513.14
2022-12-31T09:42:19.898Z,99508.59
2022-12-31T09:45:20.819Z,99513.33
2022-12-31T09:48:35.865Z,99504.19
2022-12-31T09:51:28.522Z,99497.33
2022-12-31T09:54:30.654Z,99492.39
2022-12-31T09:57:38.962Z,99491.30
2022-12-31T10:00:21.291Z,99493.37
2022-12-31T10:03:09.274Z,99494.44
2022-12-31T10:05:57.304Z,99491.27
2022-12-31T10:08:49.271Z,99491.44
2022-12-31T10:14:35.383Z,99494.75
2022-12-31T10:17:19.595Z,99506.48
2022-12-31T10:20:14.628Z,99505.56
2022-12-31T10:23:03.449Z,99507.11
2022-12-31T10:25:53.575Z,99497.83
2022-12-31T10:28:40.853Z,99504.88
2022-12-31T10:31:23.983Z,99494.19
2022-12-31T10:34:14.273Z,99485.97
2022-12-31T10:37:05.477Z,99492.30
2022-12-31T10:39:52.047Z,99493.19
2022-12-31T10:42:47.990Z,99493.04
2022-12-31T10:45:47.865Z,99491.31
2022-12-31T10:49:05.161Z,99497.84
2022-12-31T10:52:07.469Z,99498.73
2022-12-31T10:55:25.733Z,99493.27
2022-12-31T10:58:27.060Z,99498.70
2022-12-31T11:01:10.037Z,99497.80
2022-12-31T11:04:21.227Z,99493.95
2022-12-31T11:07:34.159Z,99482.88
2022-12-31T11:10:58.380Z,99475.30
2022-12-31T11:14:01.103Z,99475.81
2022-12-31T11:17:13.809Z,99474.24
2022-12-31T11:19:58.821Z,99473.59
2022-12-31T11:22:58.038Z,99457.14
2022-12-31T11:25:41.455Z,99434.90
2022-12-31T11:28:32.622Z,99435.27
2022-12-31T11:31:21.374Z,99449.33
2022-12-31T11:34:11.862Z,99456.19
2022-12-31T11:37:01.079Z,99455.30
2022-12-31T11:39:46.177Z,99446.88
2022-12-31T11:42:27.063Z,99440.73
2022-12-31T11:45:04.023Z,99439.48
2022-12-31T11:48:29.061Z,99436.10
2022-12-31T11:50:59.418Z,99438.39
2022-12-31T11:53:55.142Z,99437.49
2022-12-31T11:56:33.737Z,99434.53
2022-12-31T11:59:18.861Z,99429.42
2022-12-31T12:02:00.036Z,99432.59
2022-12-31T12:04:33.350Z,99438.55
2022-12-31T12:07:11.939Z,99438.73
2022-12-31T12:09:49.905Z,99440.52
2022-12-31T12:12:22.969Z,99446.16
2022-12-31T12:14:57.392Z,99442.14
2022-12-31T12:17:34.567Z,99444.25
2022-12-31T12:20:18.484Z,99442.69
2022-12-31T12:22:57.627Z,99447.42
2022-12-31T12:25:40.669Z,99449.86
2022-12-31T12:28:23.760Z,99447.77
2022-12-31T12:31:03.543Z,99440.06
2022-12-31T12:33:46.875Z,99432.70
2022-12-31T12:36:21.358Z,99432.36
2022-12-31T12:39:04.969Z,99440.95
2022-12-31T12:41:37.974Z,99440.27
2022-12-31T12:44:17.276Z,99441.14
2022-12-31T12:46:53.552Z,99439.73
2022-12-31T12:49:28.618Z,99440.98
2022-12-31T12:52:34.452Z,99446.59
2022-12-31T12:55:22.110Z,99445.89
2022-12-31T12:58:06.542Z,99441.67
2022-12-31T13:00:44.921Z,99439.23
2022-12-31T13:03:37.396Z,99441.16
2022-12-31T13:06:29.466Z,99446.77
2022-12-31T13:09:20.614Z,99446.06
2022-12-31T13:12:07.773Z,99443.61
2022-12-31T13:14:50.080Z,99443.08
2022-12-31T13:17:41.081Z,99444.11
2022-12-31T13:20:23.189Z,99437.28
2022-12-31T13:23:06.806Z,99441.48
2022-12-31T13:25:53.297Z,99442.73
2022-12-31T13:28:26.211Z,99436.95
2022-12-31T13:31:06.849Z,99437.13
2022-12-31T13:33:45.618Z,99436.96
2022-12-31T13:36:18.546Z,99433.29
2022-12-31T13:38:54.417Z,99443.61
2022-12-31T13:41:31.731Z,99450.96
2022-12-31T13:44:13.468Z,99455.67
2022-12-31T13:46:50.342Z,99459.36
2022-12-31T13:49:28.539Z,99463.01
2022-12-31T13:52:11.478Z,99464.23
2022-12-31T13:54:53.395Z,99462.98
2022-12-31T13:57:38.747Z,99462.09
2022-12-31T14:00:24.284Z,99453.15
2022-12-31T14:03:10.096Z,99458.36
2022-12-31T14:05:50.293Z,99465.67
2022-12-31T14:08:24.029Z,99468.81
2022-12-31T14:11:06.402Z,99464.40
2022-12-31T14:13:58.272Z,99455.45
2022-12-31T14:16:43.900Z,99453.84
2022-12-31T14:19:32.506Z,99452.94
2022-12-31T14:22:21.793Z,99463.02
2022-12-31T14:24:55.663Z,99466.11
2022-12-31T14:27:32.594Z,99466.42
2022-12-31T14:30:15.788Z,99457.14
2022-12-31T14:33:05.540Z,99454.98
2022-12-31T14:35:51.186Z,99456.70
2022-12-31T14:38:38.247Z,99452.30
2022-12-31T14:41:20.858Z,99454.73
2022-12-31T14:44:04.785Z,99456.05
2022-12-31T14:46:49.844Z,99457.61
2022-12-31T14:49:42.553Z,99466.64
2022-12-31T14:52:28.704Z,99470.45
2022-12-31T14:55:24.500Z,99464.66
2022-12-31T15:00:58.015Z,99461.63
2022-12-31T15:03:44.693Z,99458.11
2022-12-31T15:06:42.431Z,99454.95
2022-12-31T15:09:53.835Z,99467.13
2022-12-31T15:12:47.667Z,99473.73
2022-12-31T15:15:35.171Z,99470.41
2022-12-31T15:18:28.519Z,99470.23
2022-12-31T15:21:30.027Z,99478.09
2022-12-31T15:24:03.348Z,99476.33
2022-12-31T15:26:36.392Z,99484.88
2022-12-31T15:29:25.626Z,99482.61
2022-12-31T15:32:02.147Z,99481.38
2022-12-31T15:34:36.661Z,99477.36
2022-12-31T15:37:31.372Z,99477.36
2022-12-31T15:40:20.920Z,99480.51
2022-12-31T15:42:59.565Z,99485.57
2022-12-31T15:45:38.960Z,99485.06
2022-12-31T15:48:16.848Z,99489.79
2022-12-31T15:50:51.126Z,99483.36
2022-12-31T15:53:30.947Z,99479.20
2022-12-31T15:56:06.459Z,99478.33
2022-12-31T15:58:39.806Z,99482.88
2022-12-31T16:01:18.833Z,99486.71
2022-12-31T16:03:56.121Z,99486.89
2022-12-31T16:06:30.383Z,99478.17
2022-12-31T16:09:03.182Z,99476.09
2022-12-31T16:11:41.763Z,99479.77
2022-12-31T16:14:26.318Z,99488.67
2022-12-31T16:17:01.484Z,99491.47
2022-12-31T16:19:37.376Z,99488.34
2022-12-31T16:22:18.384Z,99492.75
2022-12-31T16:25:29.013Z,99493.48
2022-12-31T16:27:50.231Z,99488.77
2022-12-31T16:30:29.664Z,99488.27
2022-12-31T16:33:04.304Z,99493.52
2022-12-31T16:35:38.090Z,99502.83
2022-12-31T16:38:20.941Z,99504.75
2022-12-31T16:41:17.725Z,99508.63
2022-12-31T16:43:51.473Z,99515.31
2022-12-31T16:46:27.299Z,99510.45
2022-12-31T16:49:07.228Z,99512.57
2022-12-31T16:51:41.093Z,99516.43
2022-12-31T16:54:22.061Z,99516.98
2022-12-31T16:56:55.169Z,99523.98
2022-12-31T16:59:35.202Z,99516.81
2022-12-31T17:02:16.260Z,99512.29
2022-12-31T17:04:56.057Z,99510.36
2022-12-31T17:07:41.699Z,99510.02
2022-12-31T17:10:24.926Z,99517.71
2022-12-31T17:15:53.697Z,99527.86
2022-12-31T17:18:28.577Z,99525.60
2022-12-31T17:21:09.958Z,99523.34
2022-12-31T17:23:46.856Z,99520.40
2022-12-31T17:26:27.983Z,99526.00
2022-12-31T17:29:02.468Z,99531.24
2022-12-31T17:31:41.569Z,99523.91
2022-12-31T17:34:31.089Z,99525.31
2022-12-31T17:37:19.941Z,99528.82
2022-12-31T17:40:17.088Z,99526.73
2022-12-31T17:42:51.647Z,99528.13
2022-12-31T17:45:24.785Z,99531.80
2022-12-31T17:48:01.168Z,99527.12
2022-12-31T17:50:34.312Z,99528.01
2022-12-31T17:53:13.819Z,99531.15
2022-12-31T17:55:50.022Z,99531.02
2022-12-31T17:58:29.795Z,99529.85
2022-12-31T18:01:03.529Z,99528.98
2022-12-31T18:03:38.013Z,99525.34
2022-12-31T18:06:18.376Z,99520.30
2022-12-31T18:08:53.025Z,99517.52
2022-12-31T18:11:26.737Z,99520.50
2022-12-31T18:13:59.576Z,99519.63
2022-12-31T18:16:32.301Z,99518.77
2022-12-31T18:19:23.500Z,99522.61
2022-12-31T18:22:05.083Z,99527.85
2022-12-31T18:24:48.325Z,99527.66
2022-12-31T18:27:32.390Z,99526.96
2022-12-31T18:30:07.115Z,99530.26
2022-12-31T18:32:42.191Z,99525.87
2022-12-31T18:35:57.569Z,99521.14
2022-12-31T18:38:15.319Z,99521.48
2022-12-31T18:40:56.094Z,99517.08
2022-12-31T18:43:34.303Z,99506.05
2022-12-31T18:46:11.229Z,99506.56
2022-12-31T18:48:44.413Z,99503.05
2022-12-31T18:51:19.846Z,99511.58
2022-12-31T18:53:52.358Z,99516.82
2022-12-31T18:56:27.876Z,99528.17
2022-12-31T18:59:03.335Z,99528.16
2022-12-31T19:01:38.355Z,99529.21
2022-12-31T19:04:18.724Z,99532.02
2022-12-31T19:06:54.729Z,99525.55
2022-12-31T19:12:25.066Z,99523.23
2022-12-31T19:14:57.583Z,99526.19
2022-12-31T19:17:32.549Z,99533.01
2022-12-31T19:20:05.660Z,99528.98
2022-12-31T19:22:38.184Z,99526.20
2022-12-31T19:25:21.268Z,99526.95
2022-12-31T19:27:54.522Z,99531.15
2022-12-31T19:30:29.003Z,99538.17
2022-12-31T19:33:01.956Z,99535.05
2022-12-31T19:35:34.550Z,99541.58
2022-12-31T19:38:13.436Z,99543.50
2022-12-31T19:40:46.598Z,99549.10
2022-12-31T19:43:23.930Z,99546.48
2022-12-31T19:45:57.168Z,99546.13
2022-12-31T19:48:32.915Z,99543.69
2022-12-31T19:51:09.805Z,99543.86
2022-12-31T19:53:42.380Z,99542.64
2022-12-31T19:56:20.024Z,99547.52
2022-12-31T19:58:52.667Z,99550.85
2022-12-31T20:01:26.567Z,99554.86
2022-12-31T20:03:59.698Z,99549.63
2022-12-31T20:06:32.283Z,99550.67
2022-12-31T20:09:06.998Z,99548.05
2022-12-31T20:11:39.755Z,99550.84
2022-12-31T20:14:13.198Z,99549.79
2022-12-31T20:16:45.881Z,99545.08
2022-12-31T20:19:18.812Z,99545.24
2022-12-31T20:21:51.418Z,99544.02
2022-12-31T20:24:24.116Z,99549.43
2022-12-31T20:26:56.650Z,99552.41
2022-12-31T20:29:29.520Z,99556.74
2022-12-31T20:32:02.190Z,99560.93
2022-12-31T20:34:34.870Z,99562.15
2022-12-31T20:37:07.814Z,99568.27
2022-12-31T20:39:40.411Z,99571.59
2022-12-31T20:42:12.952Z,99576.47
2022-12-31T20:44:45.526Z,99580.14
2022-12-31T20:47:18.478Z,99576.98
2022-12-31T20:50:10.906Z,99576.29
2022-12-31T20:52:45.638Z,99575.08
2022-12-31T20:55:19.227Z,99579.09
2022-12-31T20:57:53.869Z,99582.05
2022-12-31T21:00:26.541Z,99583.98
2022-12-31T21:03:10.487Z,99580.61
2022-12-31T21:05:53.962Z,99579.58
2022-12-31T21:08:31.131Z,99590.95
2022-12-31T21:11:29.697Z,99589.75
2022-12-31T21:14:03.054Z,99590.98
2022-12-31T21:16:35.979Z,99592.73
2022-12-31T21:19:12.678Z,99598.15
2022-12-31T21:21:45.215Z,99610.23
2022-12-31T21:24:23.529Z,99609.73
2022-12-31T21:26:57.872Z,99611.10
2022-12-31T21:29:34.539Z,99612.13
2022-12-31T21:32:08.337Z,99610.39
2022-12-31T21:34:42.221Z,99610.55
2022-12-31T21:37:16.998Z,99603.22
2022-12-31T21:39:49.484Z,99603.73
2022-12-31T21:42:22.077Z,99600.20
2022-12-31T21:44:54.637Z,99597.74
2022-12-31T21:47:47.592Z,99593.73
2022-12-31T21:50:20.981Z,99599.83
2022-12-31T21:52:53.496Z,99608.20
2022-12-31T21:55:43.344Z,99614.66
2022-12-31T21:58:27.267Z,99604.83
2022-12-31T22:01:18.764Z,99607.79
2022-12-31T22:03:51.470Z,99608.84
2022-12-31T22:06:26.021Z,99602.52
2022-12-31T22:08:59.001Z,99600.77
2022-12-31T22:11:31.669Z,99595.84
2022-12-31T22:14:06.661Z,99590.58
2022-12-31T22:16:39.650Z,99587.94
2022-12-31T22:19:13.866Z,99588.99
2022-12-31T22:21:46.386Z,99588.98
2022-12-31T22:24:20.213Z,99584.27
2022-12-31T22:26:55.708Z,99584.44
2022-12-31T22:29:29.176Z,99591.27
2022-12-31T22:32:01.800Z,99587.07
2022-12-31T22:34:34.317Z,99584.63
2022-12-31T22:37:27.485Z,99583.58
2022-12-31T22:40:03.104Z,99582.02
2022-12-31T22:42:36.253Z,99583.93
2022-12-31T22:45:10.979Z,99583.92
2022-12-31T22:47:43.550Z,99583.40
2022-12-31T22:50:16.479Z,99582.88
2022-12-31T22:52:48.973Z,99580.41
2022-12-31T22:55:21.655Z,99581.64
2022-12-31T22:57:54.451Z,99580.41
2022-12-31T23:00:38.756Z,99589.69
2022-12-31T23:03:11.497Z,99592.83
2022-12-31T23:05:44.290Z,99594.06
2022-12-31T23:08:23.133Z,99600.88
2022-12-31T23:11:05.749Z,99601.76
2022-12-31T23:14:01.603Z,99603.55
2022-12-31T23:16:52.075Z,99595.88
2022-12-31T23:19:42.017Z,99585.77
2022-12-31T23:22:31.652Z,99579.83
2022-12-31T23:25:04.211Z,99577.92
2022-12-31T23:27:36.814Z,99576.57
2022-12-31T23:30:13.025Z,99576.24
2022-12-31T23:32:45.567Z,99575.75
2022-12-31T23:35:18.210Z,99579.46
2022-12-31T23:37:51.025Z,99578.45
2022-12-31T23:40:23.725Z,99581.80
2022-12-31T23:42:56.967Z,99571.67
2022-12-31T23:45:33.041Z,99575.04
2022-12-31T23:48:06.613Z,99569.80
2022-12-31T23:50:41.316Z,99569.98
2022-12-31T23:53:14.251Z,99572.77
2022-12-31T23:55:46.782Z,99577.50
2022-12-31T23:58:19.414Z,99582.75
